Accueil
METAR-TAF:

METAR-TAF

Aéroports :

Aéroport d'East Midlands

Midlands de l'Est, Angleterre

latitude: 52-50N, longitude: 001-20W, altitude: 94 m

Observation

Le bulletin a été fait il y a 22 minutes, à 18:50 UTC
Vent 8 kt de sud/sud-ouest
Température 22°C
Humidité 35%
Pression 1017 hPa
Visibilité 10 km ou plus
pas de nuages en-dessous de 1500 mètres et pas de cumulonimbus.

METAR: EGNX 151850Z 20008KT CAVOK 22/06 Q1017

Heure: 20:12 (19:12 UTC)

Prévision

Le bulletin a été fait il y a 2 heures et 16 minutes, à 16:56 UTC
Prévision valable du 15 à 18 UTC au 16 à 18 UTC
Vent 6 kt de sud/sud-ouest
Visibilité 10 km ou plus
Quelques nuages à une hauteur de 4500 ft
Probabilité 30% :
Temporairement
du 16 à 03 UTC au 16 à 06 UTC
Visibilité: 9000 m

TAF: EGNX 151656Z 1518/1618 20006KT 9999 FEW045 PROB30 TEMPO 1603/1606 9000

Observations et prévisions météorologiques de plus de 4000 aéroports (messages METAR et TAF).

Les stations disponibles sont représentées par des disques jaunes et rouges sur la carte.

Passer la souris dessus pour voir le nom de la station.

Cliquer dessus pour voir les observations et prévisions météorologiques.

Pour changer de carte: cliquez sur les boutons verts avec une croix noire pour zoomer, sur le bouton vert avec un tiret pour effectuer un zoom arrière, ou sur les flèches vertes pour les cartes adjacentes.


METAR-TAF: